createdAt,value
2018-08-28T00:00:09.207Z,9.50
2018-08-28T00:00:29.561Z,9.60
2018-08-28T00:00:51.026Z,9.10
2018-08-28T00:01:10.740Z,8.30
2018-08-28T00:01:30.672Z,9.20
2018-08-28T00:01:51.855Z,9.60
2018-08-28T00:02:11.279Z,11.20
2018-08-28T00:02:31.660Z,10.20
2018-08-28T00:02:52.317Z,8.70
2018-08-28T00:03:12.206Z,7.10
2018-08-28T00:03:32.585Z,8.60
2018-08-28T00:03:53.411Z,9.90
2018-08-28T00:04:13.340Z,12.10
2018-08-28T00:04:34.371Z,9.80
2018-08-28T00:04:54.114Z,8.80
2018-08-28T00:05:14.286Z,8.50
2018-08-28T00:05:34.903Z,9.80
2018-08-28T00:05:54.343Z,10.00
2018-08-28T00:06:14.823Z,9.90
2018-08-28T00:06:36.109Z,9.60
2018-08-28T00:06:55.545Z,10.20
2018-08-28T00:07:15.919Z,10.10
2018-08-28T00:07:36.956Z,11.10
2018-08-28T00:07:56.366Z,10.50
2018-08-28T00:08:16.746Z,10.20
2018-08-28T00:08:37.573Z,9.00
2018-08-28T00:08:57.555Z,10.00
2018-08-28T00:09:18.115Z,9.80
2018-08-28T00:09:38.299Z,9.80
2018-08-28T00:09:58.223Z,9.60
2018-08-28T00:10:19.454Z,9.90
2018-08-28T00:10:39.398Z,9.30
2018-08-28T00:10:59.355Z,8.50
2018-08-28T00:11:20.788Z,9.30
2018-08-28T00:11:40.405Z,9.50
2018-08-28T00:12:00.388Z,10.20
2018-08-28T00:12:21.922Z,10.90
2018-08-28T00:12:41.125Z,10.90
2018-08-28T00:13:01.017Z,9.60
2018-08-28T00:13:22.056Z,8.10
2018-08-28T00:13:41.742Z,9.30
2018-08-28T00:14:01.988Z,10.10
2018-08-28T00:14:22.461Z,10.20
2018-08-28T00:14:42.395Z,8.90
2018-08-28T00:15:02.756Z,9.10
2018-08-28T00:15:23.490Z,8.40
2018-08-28T00:15:43.394Z,8.20
2018-08-28T00:16:04.743Z,10.40
2018-08-28T00:16:24.388Z,10.70
2018-08-28T00:16:44.342Z,12.40
2018-08-28T00:17:05.801Z,12.20
2018-08-28T00:17:25.030Z,12.70
2018-08-28T00:17:45.526Z,11.90
2018-08-28T00:18:06.907Z,10.30
2018-08-28T00:18:26.370Z,11.30
2018-08-28T00:18:46.811Z,11.30
2018-08-28T00:19:07.680Z,12.60
2018-08-28T00:19:27.569Z,12.20
2018-08-28T00:19:48.026Z,12.30
2018-08-28T00:20:08.713Z,10.80
2018-08-28T00:20:28.598Z,10.60
2018-08-28T00:20:49.824Z,9.50
2018-08-28T00:21:09.291Z,9.80
2018-08-28T00:21:29.735Z,9.50
2018-08-28T00:21:51.310Z,12.00
2018-08-28T00:22:10.132Z,13.50
2018-08-28T00:22:30.571Z,12.60
2018-08-28T00:22:51.183Z,9.90
2018-08-28T00:23:11.513Z,8.20
2018-08-28T00:23:31.383Z,8.40
2018-08-28T00:23:52.346Z,9.50
2018-08-28T00:24:12.257Z,10.20
2018-08-28T00:24:32.724Z,10.10
2018-08-28T00:24:53.461Z,9.40
2018-08-28T00:25:13.507Z,9.60
2018-08-28T00:25:34.189Z,11.30
2018-08-28T00:26:13.564Z,11.10
2018-08-28T00:26:34.915Z,8.70
2018-08-28T00:26:54.404Z,8.80
2018-08-28T00:27:14.821Z,8.60
2018-08-28T00:27:36.151Z,10.10
2018-08-28T00:27:55.584Z,10.00
2018-08-28T00:28:16.226Z,9.40
2018-08-28T00:28:36.876Z,7.80
2018-08-28T00:28:56.296Z,8.90
2018-08-28T00:29:16.677Z,9.20
2018-08-28T00:29:37.548Z,9.10
2018-08-28T00:29:57.475Z,9.30
2018-08-28T00:30:18.456Z,9.50
2018-08-28T00:30:38.742Z,11.80
2018-08-28T00:30:59.590Z,11.70
2018-08-28T00:31:20.000Z,11.90
2018-08-28T00:31:39.685Z,9.10
2018-08-28T00:32:20.616Z,8.30
2018-08-28T00:32:40.036Z,9.50
2018-08-28T00:33:00.393Z,9.70
2018-08-28T00:33:21.906Z,11.70
2018-08-28T00:33:40.870Z,12.50
2018-08-28T00:34:01.248Z,10.90
2018-08-28T00:34:22.393Z,9.30
2018-08-28T00:34:41.804Z,8.30
2018-08-28T00:35:02.543Z,8.60
2018-08-28T00:35:22.536Z,9.00
2018-08-28T00:35:42.932Z,10.00
2018-08-28T00:36:04.069Z,10.40
2018-08-28T00:36:23.747Z,11.50
2018-08-28T00:36:43.699Z,13.70
2018-08-28T00:37:05.085Z,14.40
2018-08-28T00:37:24.597Z,12.20
2018-08-28T00:37:44.446Z,9.10
2018-08-28T00:38:05.912Z,7.30
2018-08-28T00:38:25.262Z,8.20
2018-08-28T00:38:45.714Z,10.70
2018-08-28T00:39:06.839Z,11.30
2018-08-28T00:39:26.192Z,11.50
2018-08-28T00:39:48.609Z,9.10
2018-08-28T00:40:13.094Z,10.60
2018-08-28T00:40:27.415Z,10.80
2018-08-28T00:40:53.269Z,12.10
2018-08-28T00:41:12.938Z,17.90
2018-08-28T00:41:33.528Z,17.40
2018-08-28T00:41:51.565Z,17.10
2018-08-28T00:42:09.372Z,10.00
2018-08-28T00:42:29.287Z,10.50
2018-08-28T00:42:50.695Z,10.60
2018-08-28T00:43:10.113Z,10.90
2018-08-28T00:43:30.491Z,9.30
2018-08-28T00:43:51.617Z,8.80
2018-08-28T00:44:11.042Z,10.00
2018-08-28T00:44:31.423Z,10.20
2018-08-28T00:44:52.336Z,10.90
2018-08-28T00:45:12.510Z,10.70
2018-08-28T00:45:32.362Z,12.00
2018-08-28T00:45:53.103Z,10.30
2018-08-28T00:46:13.014Z,11.30
2018-08-28T00:46:34.226Z,10.50
2018-08-28T00:46:53.937Z,10.40
2018-08-28T00:47:13.825Z,9.90
2018-08-28T00:47:34.949Z,9.10
2018-08-28T00:47:54.743Z,12.20
2018-08-28T00:48:14.654Z,15.40
2018-08-28T00:48:35.898Z,15.40
2018-08-28T00:48:55.326Z,13.70
2018-08-28T00:49:15.797Z,11.50
2018-08-28T00:49:36.679Z,13.10
2018-08-28T00:49:56.652Z,13.20
2018-08-28T00:50:17.205Z,12.60
2018-08-28T00:50:37.378Z,12.90
2018-08-28T00:50:57.268Z,12.30
2018-08-28T00:51:17.644Z,13.10
2018-08-28T00:51:38.362Z,13.30
2018-08-28T00:52:18.759Z,11.90
2018-08-28T00:52:38.849Z,10.50
2018-08-28T00:52:58.815Z,10.70
2018-08-28T00:53:20.245Z,9.80
2018-08-28T00:53:39.673Z,11.10
2018-08-28T00:54:00.053Z,14.90
2018-08-28T00:54:21.372Z,17.50
2018-08-28T00:54:40.806Z,17.10
2018-08-28T00:55:01.262Z,14.70
2018-08-28T00:55:22.328Z,13.40
2018-08-28T00:55:41.674Z,13.50
2018-08-28T00:56:02.329Z,11.80
2018-08-28T00:56:22.389Z,10.80
2018-08-28T00:56:42.351Z,9.80
2018-08-28T00:57:03.172Z,11.80
2018-08-28T00:57:23.348Z,11.90
2018-08-28T00:57:43.199Z,13.10
2018-08-28T00:58:04.609Z,11.60
2018-08-28T00:58:24.279Z,12.40
2018-08-28T00:58:44.139Z,10.80
2018-08-28T00:59:05.539Z,11.60
2018-08-28T00:59:25.001Z,10.90
2018-08-28T00:59:45.565Z,10.00
2018-08-28T01:00:06.476Z,10.30
2018-08-28T01:00:25.906Z,10.70
2018-08-28T01:00:46.259Z,9.80
2018-08-28T01:01:07.216Z,8.30
2018-08-28T01:01:27.167Z,8.60
2018-08-28T01:01:47.606Z,9.90
2018-08-28T01:02:08.320Z,11.20
2018-08-28T01:02:28.260Z,11.30
2018-08-28T01:02:49.305Z,11.20
2018-08-28T01:03:08.737Z,10.10
2018-08-28T01:03:29.190Z,10.50
2018-08-28T01:03:50.721Z,9.30
2018-08-28T01:04:09.583Z,11.10
2018-08-28T01:04:30.018Z,11.40
2018-08-28T01:04:51.270Z,13.30
2018-08-28T01:05:10.648Z,13.10
2018-08-28T01:05:31.102Z,13.90
2018-08-28T01:05:52.190Z,12.80
2018-08-28T01:06:11.594Z,13.00
2018-08-28T01:06:32.025Z,13.50
2018-08-28T01:06:52.746Z,14.60
2018-08-28T01:07:12.671Z,13.80
2018-08-28T01:07:33.442Z,14.30
2018-08-28T01:07:53.966Z,13.40
2018-08-28T01:08:13.318Z,14.20
2018-08-28T01:08:34.370Z,13.50
2018-08-28T01:08:54.079Z,14.70
2018-08-28T01:09:14.220Z,16.40
2018-08-28T01:09:34.992Z,16.00
2018-08-28T01:09:54.628Z,15.00
2018-08-28T01:10:14.730Z,11.50
2018-08-28T01:10:34.969Z,10.90
2018-08-28T01:10:54.954Z,12.60
2018-08-28T01:11:15.521Z,12.50
2018-08-28T01:11:36.214Z,12.10
2018-08-28T01:11:55.661Z,9.40
2018-08-28T01:12:16.038Z,9.30
2018-08-28T01:12:37.182Z,8.50
2018-08-28T01:12:56.590Z,9.30
2018-08-28T01:13:16.941Z,9.90
2018-08-28T01:13:37.629Z,10.80
2018-08-28T01:13:57.524Z,11.30
2018-08-28T01:14:18.230Z,10.50
2018-08-28T01:14:38.558Z,11.80
2018-08-28T01:14:58.447Z,11.70
2018-08-28T01:15:19.773Z,13.40
2018-08-28T01:15:39.244Z,14.50
2018-08-28T01:15:59.682Z,12.80
2018-08-28T01:16:20.923Z,11.60
2018-08-28T01:16:40.320Z,9.60
2018-08-28T01:17:00.710Z,10.90
2018-08-28T01:17:21.833Z,13.30
2018-08-28T01:17:41.263Z,13.40
2018-08-28T01:18:01.767Z,12.70
2018-08-28T01:18:22.187Z,11.30
2018-08-28T01:18:42.087Z,11.90
2018-08-28T01:19:02.823Z,12.20
2018-08-28T01:19:22.975Z,11.40
2018-08-28T01:19:42.913Z,10.10
2018-08-28T01:20:03.829Z,10.70
2018-08-28T01:20:24.018Z,12.50
2018-08-28T01:20:43.944Z,14.20
2018-08-28T01:21:05.486Z,13.10
2018-08-28T01:21:24.564Z,11.30
2018-08-28T01:21:44.468Z,11.80
2018-08-28T01:22:05.687Z,13.10
2018-08-28T01:22:25.152Z,13.40
2018-08-28T01:22:45.510Z,11.20
2018-08-28T01:23:06.822Z,10.20
2018-08-28T01:23:26.247Z,9.00
2018-08-28T01:23:46.602Z,8.50
2018-08-28T01:24:07.449Z,8.20
2018-08-28T01:24:27.298Z,9.60
2018-08-28T01:24:47.762Z,11.50
2018-08-28T01:25:08.486Z,12.50
2018-08-28T01:25:28.412Z,10.80
2018-08-28T01:25:49.842Z,8.20
2018-08-28T01:26:09.474Z,7.70
2018-08-28T01:26:29.442Z,8.10
2018-08-28T01:26:50.770Z,10.00
2018-08-28T01:27:10.128Z,10.30
2018-08-28T01:27:30.881Z,10.30
2018-08-28T01:27:51.596Z,11.30
2018-08-28T01:28:11.090Z,10.90
2018-08-28T01:28:31.535Z,10.90
2018-08-28T01:28:52.563Z,9.50
2018-08-28T01:29:11.914Z,9.40
2018-08-28T01:29:32.328Z,8.50
2018-08-28T01:29:53.029Z,7.80
2018-08-28T01:30:12.891Z,6.90
2018-08-28T01:30:34.025Z,7.60
2018-08-28T01:30:53.693Z,9.50
2018-08-28T01:31:13.610Z,10.90
2018-08-28T01:31:34.930Z,10.50
2018-08-28T01:31:54.408Z,9.50
2018-08-28T01:32:14.874Z,10.40
2018-08-28T01:32:35.960Z,11.30
2018-08-28T01:33:15.359Z,10.60
2018-08-28T01:33:36.789Z,10.50
2018-08-28T01:34:16.182Z,10.60
2018-08-28T01:34:37.116Z,10.30
2018-08-28T01:35:17.123Z,10.30
2018-08-28T01:35:37.848Z,10.30
2018-08-28T01:35:57.701Z,10.10
2018-08-28T01:36:18.680Z,9.70
2018-08-28T01:36:38.902Z,9.60
2018-08-28T01:36:58.799Z,10.40
2018-08-28T01:37:20.123Z,10.70
2018-08-28T01:37:39.699Z,10.30
2018-08-28T01:37:59.620Z,9.90
2018-08-28T01:38:20.959Z,8.80
2018-08-28T01:38:40.501Z,9.60
2018-08-28T01:39:00.783Z,11.50
2018-08-28T01:39:21.556Z,11.90
2018-08-28T01:39:43.852Z,10.90
2018-08-28T01:40:02.808Z,10.30
2018-08-28T01:40:22.231Z,10.90
2018-08-28T01:40:42.082Z,9.90
2018-08-28T01:41:02.780Z,7.70
2018-08-28T01:41:22.935Z,8.30
2018-08-28T01:41:42.793Z,9.20
2018-08-28T01:42:03.776Z,10.70
2018-08-28T01:42:26.380Z,12.00
2018-08-28T01:42:45.977Z,12.00
2018-08-28T01:43:04.779Z,10.80
2018-08-28T01:43:24.501Z,10.20
2018-08-28T01:43:44.378Z,9.70
2018-08-28T01:44:05.739Z,10.10
2018-08-28T01:44:25.258Z,9.50
2018-08-28T01:44:45.287Z,9.80
2018-08-28T01:45:06.127Z,10.10
2018-08-28T01:45:25.490Z,10.70
2018-08-28T01:45:45.850Z,10.80
2018-08-28T01:46:06.994Z,10.00
2018-08-28T01:46:26.436Z,8.90
2018-08-28T01:46:46.885Z,9.50
2018-08-28T01:47:07.643Z,10.00
2018-08-28T01:47:29.301Z,9.80
2018-08-28T01:47:47.703Z,9.00
2018-08-28T01:48:12.697Z,9.10
2018-08-28T01:48:28.553Z,9.50
2018-08-28T01:48:49.831Z,9.40
2018-08-28T01:49:09.190Z,10.60
2018-08-28T01:49:29.593Z,11.80
2018-08-28T01:49:50.922Z,13.10
2018-08-28T01:50:10.395Z,10.70
2018-08-28T01:50:30.828Z,8.70
2018-08-28T01:51:11.287Z,9.70
2018-08-28T01:51:31.641Z,10.60
2018-08-28T01:52:12.101Z,10.90
2018-08-28T01:52:32.482Z,11.90
2018-08-28T01:52:53.133Z,9.60
2018-08-28T01:53:13.201Z,9.70
2018-08-28T01:53:33.231Z,9.20
2018-08-28T01:53:53.613Z,9.50
2018-08-28T01:54:13.546Z,10.00
2018-08-28T01:54:34.791Z,9.10
2018-08-28T01:54:54.781Z,10.20
2018-08-28T01:55:15.241Z,9.90
2018-08-28T01:55:35.917Z,11.00
2018-08-28T01:55:55.354Z,10.40
2018-08-28T01:56:15.903Z,9.30
2018-08-28T01:56:36.528Z,9.40
2018-08-28T01:56:55.882Z,9.40
2018-08-28T01:57:16.350Z,10.30
2018-08-28T01:57:37.197Z,9.40
2018-08-28T01:57:57.092Z,8.80
2018-08-28T01:58:17.569Z,8.90
2018-08-28T01:58:38.392Z,8.60
2018-08-28T01:58:58.377Z,8.30
2018-08-28T01:59:20.881Z,9.20
2018-08-28T01:59:39.916Z,10.90
2018-08-28T01:59:58.842Z,11.50
2018-08-28T02:00:19.978Z,11.30
2018-08-28T02:00:39.884Z,10.30
2018-08-28T02:00:59.771Z,8.60
2018-08-28T02:01:21.075Z,10.30
2018-08-28T02:01:40.467Z,9.90
2018-08-28T02:02:00.941Z,11.30
2018-08-28T02:02:21.610Z,10.70
2018-08-28T02:02:41.588Z,11.70
2018-08-28T02:03:02.502Z,12.00
2018-08-28T02:03:22.692Z,13.30
2018-08-28T02:03:42.591Z,12.90
2018-08-28T02:04:02.964Z,12.30
2018-08-28T02:04:23.704Z,9.00
2018-08-28T02:04:43.627Z,9.20
2018-08-28T02:05:04.943Z,8.10
2018-08-28T02:05:24.570Z,9.70
2018-08-28T02:05:44.461Z,10.60
2018-08-28T02:06:05.770Z,12.30
2018-08-28T02:06:25.202Z,11.10
2018-08-28T02:06:45.576Z,11.30
2018-08-28T02:07:06.713Z,10.20
2018-08-28T02:07:26.065Z,11.20
2018-08-28T02:07:46.503Z,11.20
2018-08-28T02:08:07.453Z,10.90
2018-08-28T02:08:27.370Z,10.70
2018-08-28T02:08:47.864Z,10.20
2018-08-28T02:09:08.576Z,10.70
2018-08-28T02:09:28.529Z,10.20
2018-08-28T02:10:09.415Z,12.10
2018-08-28T02:10:29.530Z,10.50
2018-08-28T02:10:50.446Z,7.40
2018-08-28T02:11:09.796Z,9.30
2018-08-28T02:11:30.249Z,11.30
2018-08-28T02:11:51.371Z,12.60
2018-08-28T02:12:10.747Z,11.80
2018-08-28T02:12:31.220Z,12.90
2018-08-28T02:12:52.122Z,11.90
2018-08-28T02:13:12.071Z,10.40
2018-08-28T02:13:32.393Z,8.60
2018-08-28T02:13:53.042Z,9.00
2018-08-28T02:14:12.900Z,9.00
2018-08-28T02:14:33.983Z,10.60
2018-08-28T02:14:53.675Z,10.20
2018-08-28T02:15:13.923Z,11.90
2018-08-28T02:15:34.409Z,10.60
2018-08-28T02:15:54.872Z,10.70
2018-08-28T02:16:14.816Z,10.70
2018-08-28T02:16:36.129Z,10.50
2018-08-28T02:16:55.578Z,10.50
2018-08-28T02:17:15.953Z,8.70
2018-08-28T02:17:37.076Z,8.80
2018-08-28T02:17:56.501Z,8.70
2018-08-28T02:18:16.882Z,10.10
2018-08-28T02:18:37.323Z,11.20
2018-08-28T02:18:57.737Z,12.50
2018-08-28T02:19:18.554Z,11.90
2018-08-28T02:19:38.704Z,11.40
2018-08-28T02:19:58.701Z,9.90
2018-08-28T02:20:20.098Z,13.60
2018-08-28T02:20:39.586Z,12.40
2018-08-28T02:21:00.002Z,14.20
2018-08-28T02:21:21.433Z,11.20
2018-08-28T02:22:01.038Z,9.00
2018-08-28T02:22:21.749Z,8.80
2018-08-28T02:22:41.181Z,8.90
2018-08-28T02:23:01.895Z,10.00
2018-08-28T02:23:22.383Z,9.90
2018-08-28T02:23:42.243Z,9.80
2018-08-28T02:24:03.124Z,8.20
2018-08-28T02:24:23.412Z,9.00
2018-08-28T02:24:43.326Z,10.80
2018-08-28T02:25:04.567Z,11.90
2018-08-28T02:25:24.251Z,11.20
2018-08-28T02:25:44.171Z,12.30
2018-08-28T02:26:05.593Z,12.70
2018-08-28T02:26:24.953Z,12.50
2018-08-28T02:26:45.446Z,9.50
2018-08-28T02:27:06.933Z,10.70
2018-08-28T02:27:26.771Z,11.20
2018-08-28T02:27:46.741Z,11.10
2018-08-28T02:28:07.600Z,10.80
2018-08-28T02:28:27.550Z,9.80
2018-08-28T02:28:48.103Z,9.80
2018-08-28T02:29:07.983Z,9.20
2018-08-28T02:29:28.542Z,9.40
2018-08-28T02:29:49.236Z,8.90
2018-08-28T02:30:09.016Z,9.80
2018-08-28T02:30:28.957Z,10.60
2018-08-28T02:30:50.266Z,10.90
2018-08-28T02:31:09.623Z,10.80
2018-08-28T02:31:30.156Z,11.30
2018-08-28T02:32:10.135Z,12.50
2018-08-28T02:32:30.594Z,11.50
2018-08-28T02:32:51.714Z,9.90
2018-08-28T02:33:11.085Z,9.80
2018-08-28T02:33:31.498Z,10.30
2018-08-28T02:33:52.378Z,13.40
2018-08-28T02:34:12.275Z,13.20
2018-08-28T02:34:32.658Z,13.30
2018-08-28T02:34:53.482Z,11.80
2018-08-28T02:35:13.743Z,12.60
2018-08-28T02:35:34.441Z,11.20
2018-08-28T02:35:54.004Z,9.90
2018-08-28T02:36:13.929Z,8.50
2018-08-28T02:36:35.052Z,9.30
2018-08-28T02:36:54.462Z,9.70
2018-08-28T02:37:14.903Z,9.90
2018-08-28T02:37:36.283Z,8.50
2018-08-28T02:37:55.714Z,9.50
2018-08-28T02:38:16.091Z,10.70
2018-08-28T02:38:36.587Z,11.80
2018-08-28T02:38:56.947Z,10.80
2018-08-28T02:39:17.324Z,10.70
2018-08-28T02:39:37.969Z,10.10
2018-08-28T02:39:57.893Z,11.40
2018-08-28T02:40:19.190Z,11.70
2018-08-28T02:40:39.016Z,11.60
2018-08-28T02:40:58.863Z,10.20
2018-08-28T02:41:20.267Z,9.80
2018-08-28T02:41:39.662Z,10.50
2018-08-28T02:42:00.040Z,11.30
2018-08-28T02:42:21.345Z,11.60
2018-08-28T02:42:40.793Z,12.60
2018-08-28T02:43:01.175Z,13.60
2018-08-28T02:43:22.401Z,12.80
2018-08-28T02:43:41.824Z,11.40
2018-08-28T02:44:02.655Z,11.20
2018-08-28T02:44:22.806Z,12.00
2018-08-28T02:44:42.667Z,12.70
2018-08-28T02:45:03.569Z,11.40
2018-08-28T02:45:23.745Z,11.40
2018-08-28T02:45:43.620Z,10.40
2018-08-28T02:46:05.010Z,12.50
2018-08-28T02:46:24.584Z,12.70
2018-08-28T02:46:44.457Z,13.60
2018-08-28T02:47:05.753Z,12.70
2018-08-28T02:47:25.167Z,10.20
2018-08-28T02:47:45.663Z,10.00
2018-08-28T02:48:07.070Z,10.10
2018-08-28T02:48:26.531Z,11.60
2018-08-28T02:48:46.983Z,12.90
2018-08-28T02:49:07.679Z,12.00
2018-08-28T02:49:27.529Z,11.20
2018-08-28T02:49:48.241Z,11.80
2018-08-28T02:50:08.429Z,13.00
2018-08-28T02:50:28.361Z,15.10
2018-08-28T02:50:49.681Z,13.10
2018-08-28T02:51:09.144Z,12.60
2018-08-28T02:51:29.593Z,13.40
2018-08-28T02:51:51.120Z,13.30
2018-08-28T02:52:10.001Z,14.30
2018-08-28T02:52:30.425Z,13.40
2018-08-28T02:52:51.948Z,13.50
2018-08-28T02:53:10.803Z,12.80
2018-08-28T02:53:51.829Z,11.30
2018-08-28T02:54:11.269Z,10.30
2018-08-28T02:54:31.659Z,9.40
2018-08-28T02:54:52.599Z,10.50
2018-08-28T02:55:12.444Z,9.80
2018-08-28T02:55:32.909Z,11.20
2018-08-28T02:55:53.697Z,11.30
2018-08-28T02:56:13.747Z,11.10
2018-08-28T02:56:35.082Z,10.20
2018-08-28T02:56:54.690Z,9.10
2018-08-28T02:57:14.556Z,10.10
2018-08-28T02:57:36.109Z,10.60
2018-08-28T02:57:55.057Z,10.90
2018-08-28T02:58:15.504Z,9.50
2018-08-28T02:58:36.733Z,9.70
2018-08-28T02:58:56.076Z,9.70
2018-08-28T02:59:16.531Z,10.10
2018-08-28T02:59:37.496Z,9.80
2018-08-28T02:59:57.391Z,11.10
2018-08-28T03:00:18.137Z,10.90
2018-08-28T03:00:38.388Z,10.80
2018-08-28T03:00:58.325Z,9.20
2018-08-28T03:01:19.853Z,12.10
2018-08-28T03:01:39.048Z,12.70
2018-08-28T03:01:58.897Z,12.40
2018-08-28T03:02:20.284Z,11.70
2018-08-28T03:02:39.628Z,12.60
2018-08-28T03:03:00.129Z,12.50
2018-08-28T03:03:21.403Z,11.00
2018-08-28T03:03:40.866Z,9.40
2018-08-28T03:04:01.312Z,9.60
2018-08-28T03:04:22.221Z,9.20
2018-08-28T03:05:02.376Z,11.30
2018-08-28T03:05:22.696Z,11.50
2018-08-28T03:05:42.564Z,11.40
2018-08-28T03:06:03.502Z,10.30
2018-08-28T03:06:23.770Z,10.00
2018-08-28T03:06:43.714Z,9.70
2018-08-28T03:07:04.954Z,13.20
2018-08-28T03:07:24.857Z,13.50
2018-08-28T03:07:44.801Z,12.60
2018-08-28T03:08:06.278Z,9.50
2018-08-28T03:08:25.714Z,9.60
2018-08-28T03:08:46.186Z,11.00
2018-08-28T03:09:07.250Z,11.90
2018-08-28T03:09:26.624Z,12.10
2018-08-28T03:09:47.014Z,10.30
2018-08-28T03:10:07.670Z,10.60
2018-08-28T03:10:27.567Z,10.20
2018-08-28T03:10:48.187Z,11.20
2018-08-28T03:11:08.414Z,9.10
2018-08-28T03:11:28.253Z,10.10
2018-08-28T03:11:49.409Z,10.20
2018-08-28T03:12:09.005Z,10.80
2018-08-28T03:12:28.906Z,10.80
2018-08-28T03:12:50.029Z,13.10
2018-08-28T03:13:09.546Z,14.70
2018-08-28T03:13:29.425Z,15.10
2018-08-28T03:13:50.843Z,12.30
2018-08-28T03:14:10.202Z,12.20
2018-08-28T03:14:30.882Z,11.70
2018-08-28T03:14:51.886Z,12.30
2018-08-28T03:15:10.957Z,12.20
2018-08-28T03:15:30.907Z,13.80
2018-08-28T03:15:51.989Z,13.00
2018-08-28T03:16:11.319Z,13.60
2018-08-28T03:16:31.675Z,11.70
2018-08-28T03:16:52.517Z,13.30
2018-08-28T03:17:12.458Z,10.70
2018-08-28T03:17:32.941Z,10.80
2018-08-28T03:17:53.776Z,11.80
2018-08-28T03:18:13.636Z,14.80
2018-08-28T03:18:34.916Z,15.00
2018-08-28T03:18:54.404Z,14.70
2018-08-28T03:19:14.821Z,12.20
2018-08-28T03:19:36.065Z,12.20
2018-08-28T03:19:55.485Z,9.90
2018-08-28T03:20:16.042Z,9.90
2018-08-28T03:20:36.769Z,10.70
2018-08-28T03:20:56.245Z,11.80
2018-08-28T03:21:16.596Z,13.10
2018-08-28T03:21:37.440Z,12.90
2018-08-28T03:21:57.462Z,11.00
2018-08-28T03:22:17.425Z,11.50
2018-08-28T03:22:38.061Z,11.30
2018-08-28T03:22:58.303Z,14.30
2018-08-28T03:23:18.772Z,13.00
2018-08-28T03:23:38.915Z,13.60
2018-08-28T03:23:58.787Z,11.60
2018-08-28T03:24:20.104Z,14.00
2018-08-28T03:24:39.532Z,14.70
2018-08-28T03:24:59.912Z,13.30
2018-08-28T03:25:21.135Z,11.20
2018-08-28T03:25:40.584Z,11.30
2018-08-28T03:26:01.111Z,13.50
2018-08-28T03:26:21.755Z,13.50
2018-08-28T03:26:41.190Z,12.70
2018-08-28T03:27:01.666Z,12.60
2018-08-28T03:27:22.545Z,12.80
2018-08-28T03:27:42.418Z,11.80
2018-08-28T03:28:02.783Z,11.60
2018-08-28T03:28:23.602Z,10.40
2018-08-28T03:28:43.843Z,12.30
2018-08-28T03:29:04.596Z,13.20
2018-08-28T03:29:24.234Z,13.50
2018-08-28T03:29:44.188Z,14.80
2018-08-28T03:30:05.505Z,13.10
2018-08-28T03:30:24.927Z,13.30
2018-08-28T03:30:45.359Z,11.40
2018-08-28T03:31:06.850Z,11.50
2018-08-28T03:31:26.311Z,11.60
2018-08-28T03:31:46.676Z,11.70
2018-08-28T03:32:07.492Z,13.40
2018-08-28T03:32:27.423Z,13.90
2018-08-28T03:32:47.882Z,14.50
2018-08-28T03:33:08.724Z,14.60
2018-08-28T03:33:28.579Z,13.40
2018-08-28T03:33:49.757Z,11.40
2018-08-28T03:34:09.320Z,9.70
2018-08-28T03:34:29.293Z,10.50
2018-08-28T03:34:50.791Z,12.10
2018-08-28T03:35:10.388Z,12.00
2018-08-28T03:35:30.402Z,10.10
2018-08-28T03:36:10.326Z,10.60
2018-08-28T03:36:30.700Z,14.20
2018-08-28T03:37:11.081Z,15.00
2018-08-28T03:37:31.458Z,12.50
2018-08-28T03:37:52.387Z,11.50
2018-08-28T03:38:12.280Z,11.30
2018-08-28T03:38:32.665Z,12.00
2018-08-28T03:38:53.489Z,12.80
2018-08-28T03:39:13.436Z,12.10
2018-08-28T03:39:34.533Z,10.70
2018-08-28T03:39:54.077Z,11.50
2018-08-28T03:40:14.056Z,12.30
2018-08-28T03:40:35.368Z,12.60
2018-08-28T03:40:54.737Z,11.40
2018-08-28T03:41:15.175Z,10.30
2018-08-28T03:41:36.502Z,11.80
2018-08-28T03:41:55.967Z,12.20
2018-08-28T03:42:16.407Z,12.80
2018-08-28T03:42:37.375Z,11.20
2018-08-28T03:42:57.273Z,10.90
2018-08-28T03:43:17.754Z,11.80
2018-08-28T03:43:38.473Z,12.50
2018-08-28T03:43:58.396Z,13.50
2018-08-28T03:44:19.726Z,13.30
2018-08-28T03:44:39.431Z,14.70
2018-08-28T03:44:59.252Z,12.60
2018-08-28T03:45:20.752Z,11.60
2018-08-28T03:45:39.717Z,11.10
2018-08-28T03:46:00.169Z,11.60
2018-08-28T03:46:21.479Z,14.30
2018-08-28T03:46:40.906Z,14.30
2018-08-28T03:47:01.282Z,14.50
2018-08-28T03:47:22.421Z,13.80
2018-08-28T03:47:41.841Z,12.50
2018-08-28T03:48:02.622Z,10.50
2018-08-28T03:48:22.833Z,10.20
2018-08-28T03:48:42.768Z,10.70
2018-08-28T03:49:04.096Z,11.20
2018-08-28T03:49:23.756Z,12.50
2018-08-28T03:49:43.692Z,13.30
2018-08-28T03:50:05.037Z,14.70
2018-08-28T03:50:24.691Z,14.60
2018-08-28T03:50:44.663Z,13.60
2018-08-28T03:51:05.945Z,12.90
2018-08-28T03:51:25.350Z,11.30
2018-08-28T03:51:45.749Z,10.90
2018-08-28T03:52:26.119Z,12.90
2018-08-28T03:52:46.493Z,14.00
2018-08-28T03:53:07.163Z,13.20
2018-08-28T03:53:27.031Z,14.10
2018-08-28T03:53:47.413Z,16.00
2018-08-28T03:54:08.061Z,14.70
2018-08-28T03:54:27.955Z,13.90
2018-08-28T03:54:48.879Z,12.00
2018-08-28T03:55:09.054Z,12.10
2018-08-28T03:55:28.919Z,14.20
2018-08-28T03:55:50.209Z,16.00
2018-08-28T03:56:09.774Z,16.80
2018-08-28T03:56:29.703Z,15.30
2018-08-28T03:56:51.034Z,15.40
2018-08-28T03:57:10.395Z,13.00
2018-08-28T03:57:30.839Z,10.80
2018-08-28T03:57:51.865Z,10.20
2018-08-28T03:58:11.467Z,11.50
2018-08-28T03:58:31.363Z,13.20
2018-08-28T03:58:52.569Z,13.10
2018-08-28T03:59:12.071Z,12.50
2018-08-28T03:59:31.930Z,12.00
2018-08-28T03:59:52.636Z,9.90
2018-08-28T04:00:12.769Z,9.00
2018-08-28T04:00:33.142Z,8.10
2018-08-28T04:00:53.322Z,9.80
2018-08-28T04:01:13.269Z,11.00
2018-08-28T04:01:34.477Z,12.70
2018-08-28T04:01:54.216Z,11.70
2018-08-28T04:02:14.236Z,11.70
2018-08-28T04:02:54.351Z,13.80
2018-08-28T04:03:14.325Z,13.70
2018-08-28T04:03:35.643Z,14.80
2018-08-28T04:03:55.081Z,13.60
2018-08-28T04:04:15.543Z,13.70
2018-08-28T04:04:36.854Z,14.10
2018-08-28T04:04:56.319Z,14.20
2018-08-28T04:05:16.947Z,13.90
2018-08-28T04:05:37.412Z,12.20
2018-08-28T04:05:57.316Z,13.10
2018-08-28T04:06:17.834Z,13.10
2018-08-28T04:06:38.036Z,12.80
2018-08-28T04:06:57.885Z,12.50
2018-08-28T04:07:18.959Z,14.80
2018-08-28T04:07:38.830Z,14.80
2018-08-28T04:07:58.685Z,14.60
2018-08-28T04:08:20.094Z,12.70
2018-08-28T04:08:39.457Z,12.10
2018-08-28T04:08:59.905Z,11.00
2018-08-28T04:09:21.219Z,13.80
2018-08-28T04:09:40.685Z,14.90
2018-08-28T04:10:01.128Z,16.70
2018-08-28T04:10:22.184Z,17.30
2018-08-28T04:10:41.746Z,17.50
2018-08-28T04:11:01.605Z,18.60
2018-08-28T04:11:22.576Z,18.10
2018-08-28T04:11:42.489Z,16.80
2018-08-28T04:12:03.526Z,18.40
2018-08-28T04:12:23.289Z,16.00
2018-08-28T04:13:03.744Z,12.80
2018-08-28T04:13:24.111Z,15.20
2018-08-28T04:13:44.271Z,14.90
2018-08-28T04:14:05.173Z,16.80
2018-08-28T04:14:24.645Z,18.80
2018-08-28T04:14:45.088Z,21.90
2018-08-28T04:15:06.408Z,21.70
2018-08-28T04:15:25.837Z,18.80
2018-08-28T04:15:46.201Z,16.90
2018-08-28T04:16:07.238Z,14.40
2018-08-28T04:16:26.697Z,15.20
2018-08-28T04:16:47.144Z,15.90
2018-08-28T04:17:07.904Z,19.20
2018-08-28T04:17:27.802Z,17.20
2018-08-28T04:18:08.386Z,13.90
2018-08-28T04:18:28.315Z,14.10
2018-08-28T04:18:49.436Z,14.20
2018-08-28T04:19:09.210Z,13.50
2018-08-28T04:19:29.147Z,13.90
2018-08-28T04:19:50.071Z,14.30
2018-08-28T04:20:10.034Z,15.50
2018-08-28T04:20:30.390Z,15.50
2018-08-28T04:20:51.702Z,15.70
2018-08-28T04:21:11.131Z,15.30
2018-08-28T04:21:31.512Z,14.10
2018-08-28T04:21:52.358Z,11.10
2018-08-28T04:22:12.300Z,12.20
2018-08-28T04:22:32.777Z,12.20
2018-08-28T04:22:53.472Z,13.00
2018-08-28T04:23:13.420Z,12.40
2018-08-28T04:23:34.724Z,13.00
2018-08-28T04:23:54.426Z,14.40
2018-08-28T04:24:14.329Z,16.90
2018-08-28T04:24:35.663Z,18.80
2018-08-28T04:24:55.253Z,18.20
2018-08-28T04:25:16.119Z,16.90
2018-08-28T04:25:36.376Z,16.30
2018-08-28T04:25:55.804Z,16.60
2018-08-28T04:26:16.224Z,16.50
2018-08-28T04:26:37.229Z,15.00
2018-08-28T04:26:56.629Z,17.40
2018-08-28T04:27:17.009Z,17.60
2018-08-28T04:27:37.718Z,18.10
2018-08-28T04:27:57.658Z,15.10
2018-08-28T04:28:18.383Z,14.60
2018-08-28T04:28:38.756Z,15.50
2018-08-28T04:28:58.714Z,18.80
2018-08-28T04:29:20.005Z,20.70
2018-08-28T04:29:39.451Z,19.70
2018-08-28T04:29:59.806Z,15.70